sensor_id;sensor_type;location;lat;lon;timestamp;P1;durP1;ratioP1;P2;durP2;ratioP2
61897;SDS011;47850;50.274;18.908;2022-07-09T00:01:21;7.40;;;2.60;;
61897;SDS011;47850;50.274;18.908;2022-07-09T00:03:47;8.50;;;3.20;;
61897;SDS011;47850;50.274;18.908;2022-07-09T00:06:14;8.40;;;2.80;;
61897;SDS011;47850;50.274;18.908;2022-07-09T00:08:40;6.70;;;2.70;;
61897;SDS011;47850;50.274;18.908;2022-07-09T00:11:07;8.70;;;2.90;;
61897;SDS011;47850;50.274;18.908;2022-07-09T00:13:34;10.00;;;3.10;;
61897;SDS011;47850;50.274;18.908;2022-07-09T00:16:00;6.40;;;3.00;;
61897;SDS011;47850;50.274;18.908;2022-07-09T00:18:27;7.80;;;3.00;;
61897;SDS011;47850;50.274;18.908;2022-07-09T00:20:54;5.60;;;2.70;;
61897;SDS011;47850;50.274;18.908;2022-07-09T00:23:21;9.50;;;3.10;;
61897;SDS011;47850;50.274;18.908;2022-07-09T00:25:48;7.30;;;2.70;;
61897;SDS011;47850;50.274;18.908;2022-07-09T00:28:14;7.30;;;2.80;;
61897;SDS011;47850;50.274;18.908;2022-07-09T00:30:41;8.50;;;3.30;;
61897;SDS011;47850;50.274;18.908;2022-07-09T00:33:07;9.80;;;2.70;;
61897;SDS011;47850;50.274;18.908;2022-07-09T00:35:34;9.30;;;3.10;;
61897;SDS011;47850;50.274;18.908;2022-07-09T00:38:00;8.20;;;3.20;;
61897;SDS011;47850;50.274;18.908;2022-07-09T00:40:27;6.80;;;2.80;;
61897;SDS011;47850;50.274;18.908;2022-07-09T00:42:53;11.20;;;2.40;;
61897;SDS011;47850;50.274;18.908;2022-07-09T00:45:20;7.30;;;2.50;;
61897;SDS011;47850;50.274;18.908;2022-07-09T00:47:47;9.40;;;2.80;;
61897;SDS011;47850;50.274;18.908;2022-07-09T00:50:13;8.90;;;2.80;;
61897;SDS011;47850;50.274;18.908;2022-07-09T00:52:40;6.60;;;2.60;;
61897;SDS011;47850;50.274;18.908;2022-07-09T00:55:08;6.10;;;2.50;;
61897;SDS011;47850;50.274;18.908;2022-07-09T00:57:36;9.40;;;2.70;;
61897;SDS011;47850;50.274;18.908;2022-07-09T01:00:05;6.50;;;2.60;;
61897;SDS011;47850;50.274;18.908;2022-07-09T01:02:32;6.20;;;2.70;;
61897;SDS011;47850;50.274;18.908;2022-07-09T01:05:00;7.50;;;2.90;;
61897;SDS011;47850;50.274;18.908;2022-07-09T01:07:26;8.00;;;3.20;;
61897;SDS011;47850;50.274;18.908;2022-07-09T01:09:53;7.50;;;3.10;;
61897;SDS011;47850;50.274;18.908;2022-07-09T01:12:19;5.40;;;3.30;;
61897;SDS011;47850;50.274;18.908;2022-07-09T01:14:46;7.60;;;3.00;;
61897;SDS011;47850;50.274;18.908;2022-07-09T01:17:12;8.40;;;2.80;;
61897;SDS011;47850;50.274;18.908;2022-07-09T01:19:39;12.50;;;3.00;;
61897;SDS011;47850;50.274;18.908;2022-07-09T01:22:06;6.90;;;2.60;;
61897;SDS011;47850;50.274;18.908;2022-07-09T01:24:32;8.10;;;2.70;;
61897;SDS011;47850;50.274;18.908;2022-07-09T01:27:00;8.10;;;2.60;;
61897;SDS011;47850;50.274;18.908;2022-07-09T01:29:28;8.60;;;2.80;;
61897;SDS011;47850;50.274;18.908;2022-07-09T01:31:54;7.40;;;2.80;;
61897;SDS011;47850;50.274;18.908;2022-07-09T01:34:21;7.40;;;2.60;;
61897;SDS011;47850;50.274;18.908;2022-07-09T01:36:47;5.70;;;2.40;;
61897;SDS011;47850;50.274;18.908;2022-07-09T01:39:14;7.00;;;3.00;;
61897;SDS011;47850;50.274;18.908;2022-07-09T01:41:41;8.80;;;3.00;;
61897;SDS011;47850;50.274;18.908;2022-07-09T01:44:07;7.70;;;2.80;;
61897;SDS011;47850;50.274;18.908;2022-07-09T01:46:34;7.40;;;2.70;;
61897;SDS011;47850;50.274;18.908;2022-07-09T01:49:01;8.60;;;3.00;;
61897;SDS011;47850;50.274;18.908;2022-07-09T01:51:28;6.10;;;2.80;;
61897;SDS011;47850;50.274;18.908;2022-07-09T01:53:54;6.00;;;2.60;;
61897;SDS011;47850;50.274;18.908;2022-07-09T01:56:21;7.30;;;2.70;;
61897;SDS011;47850;50.274;18.908;2022-07-09T01:58:48;5.60;;;2.50;;
61897;SDS011;47850;50.274;18.908;2022-07-09T02:01:14;7.90;;;2.30;;
61897;SDS011;47850;50.274;18.908;2022-07-09T02:03:41;9.00;;;2.80;;
61897;SDS011;47850;50.274;18.908;2022-07-09T02:06:07;8.10;;;2.50;;
61897;SDS011;47850;50.274;18.908;2022-07-09T02:08:34;10.10;;;3.10;;
61897;SDS011;47850;50.274;18.908;2022-07-09T02:11:01;4.30;;;2.50;;
61897;SDS011;47850;50.274;18.908;2022-07-09T02:13:27;6.00;;;2.60;;
61897;SDS011;47850;50.274;18.908;2022-07-09T02:15:54;6.50;;;2.80;;
61897;SDS011;47850;50.274;18.908;2022-07-09T02:18:21;6.30;;;2.70;;
61897;SDS011;47850;50.274;18.908;2022-07-09T02:20:47;5.90;;;2.90;;
61897;SDS011;47850;50.274;18.908;2022-07-09T02:23:14;4.90;;;2.70;;
61897;SDS011;47850;50.274;18.908;2022-07-09T02:25:40;7.20;;;2.60;;
61897;SDS011;47850;50.274;18.908;2022-07-09T02:28:07;7.90;;;3.20;;
61897;SDS011;47850;50.274;18.908;2022-07-09T02:30:33;11.00;;;3.40;;
61897;SDS011;47850;50.274;18.908;2022-07-09T02:33:03;9.70;;;3.80;;
61897;SDS011;47850;50.274;18.908;2022-07-09T02:35:30;8.60;;;3.80;;
61897;SDS011;47850;50.274;18.908;2022-07-09T02:37:56;10.00;;;3.40;;
61897;SDS011;47850;50.274;18.908;2022-07-09T02:40:23;5.80;;;2.60;;
61897;SDS011;47850;50.274;18.908;2022-07-09T02:42:50;11.10;;;3.40;;
61897;SDS011;47850;50.274;18.908;2022-07-09T02:45:16;11.40;;;4.20;;
61897;SDS011;47850;50.274;18.908;2022-07-09T02:47:43;11.80;;;5.10;;
61897;SDS011;47850;50.274;18.908;2022-07-09T02:50:09;12.40;;;4.40;;
61897;SDS011;47850;50.274;18.908;2022-07-09T02:52:36;8.80;;;3.90;;
61897;SDS011;47850;50.274;18.908;2022-07-09T02:55:02;10.30;;;3.60;;
61897;SDS011;47850;50.274;18.908;2022-07-09T02:57:29;7.20;;;3.60;;
61897;SDS011;47850;50.274;18.908;2022-07-09T02:59:55;11.10;;;4.00;;
61897;SDS011;47850;50.274;18.908;2022-07-09T03:02:22;6.10;;;3.30;;
61897;SDS011;47850;50.274;18.908;2022-07-09T03:04:48;10.00;;;4.30;;
61897;SDS011;47850;50.274;18.908;2022-07-09T03:07:15;13.40;;;4.70;;
61897;SDS011;47850;50.274;18.908;2022-07-09T03:09:42;17.70;;;6.50;;
61897;SDS011;47850;50.274;18.908;2022-07-09T03:12:08;23.30;;;6.70;;
61897;SDS011;47850;50.274;18.908;2022-07-09T03:14:35;14.50;;;4.80;;
61897;SDS011;47850;50.274;18.908;2022-07-09T03:17:02;6.30;;;2.50;;
61897;SDS011;47850;50.274;18.908;2022-07-09T03:19:28;11.50;;;3.50;;
61897;SDS011;47850;50.274;18.908;2022-07-09T03:21:55;9.10;;;2.90;;
61897;SDS011;47850;50.274;18.908;2022-07-09T03:24:22;11.20;;;3.30;;
61897;SDS011;47850;50.274;18.908;2022-07-09T03:26:48;11.80;;;3.40;;
61897;SDS011;47850;50.274;18.908;2022-07-09T03:29:15;9.10;;;2.80;;
61897;SDS011;47850;50.274;18.908;2022-07-09T03:31:42;6.40;;;2.90;;
61897;SDS011;47850;50.274;18.908;2022-07-09T03:34:08;6.60;;;2.70;;
61897;SDS011;47850;50.274;18.908;2022-07-09T03:36:35;8.60;;;3.30;;
61897;SDS011;47850;50.274;18.908;2022-07-09T03:39:02;6.40;;;2.60;;
61897;SDS011;47850;50.274;18.908;2022-07-09T03:41:29;10.00;;;3.50;;
61897;SDS011;47850;50.274;18.908;2022-07-09T03:43:56;6.60;;;2.40;;
61897;SDS011;47850;50.274;18.908;2022-07-09T03:46:22;7.00;;;3.00;;
61897;SDS011;47850;50.274;18.908;2022-07-09T03:48:50;9.50;;;4.20;;
61897;SDS011;47850;50.274;18.908;2022-07-09T03:51:16;7.50;;;3.70;;
61897;SDS011;47850;50.274;18.908;2022-07-09T03:53:43;12.80;;;4.00;;
61897;SDS011;47850;50.274;18.908;2022-07-09T03:56:09;11.80;;;3.50;;
61897;SDS011;47850;50.274;18.908;2022-07-09T03:58:36;11.70;;;4.00;;
61897;SDS011;47850;50.274;18.908;2022-07-09T04:01:04;10.40;;;4.40;;
61897;SDS011;47850;50.274;18.908;2022-07-09T04:03:30;12.70;;;4.20;;
61897;SDS011;47850;50.274;18.908;2022-07-09T04:05:57;11.70;;;3.70;;
61897;SDS011;47850;50.274;18.908;2022-07-09T04:08:23;12.30;;;4.50;;
61897;SDS011;47850;50.274;18.908;2022-07-09T04:10:50;8.70;;;3.80;;
61897;SDS011;47850;50.274;18.908;2022-07-09T04:13:17;10.60;;;3.80;;
61897;SDS011;47850;50.274;18.908;2022-07-09T04:15:44;10.50;;;3.90;;
61897;SDS011;47850;50.274;18.908;2022-07-09T04:18:13;12.00;;;5.00;;
61897;SDS011;47850;50.274;18.908;2022-07-09T04:20:41;7.50;;;3.80;;
61897;SDS011;47850;50.274;18.908;2022-07-09T04:23:08;12.60;;;4.00;;
61897;SDS011;47850;50.274;18.908;2022-07-09T04:25:34;12.50;;;5.30;;
61897;SDS011;47850;50.274;18.908;2022-07-09T04:28:01;10.10;;;5.90;;
61897;SDS011;47850;50.274;18.908;2022-07-09T04:30:28;6.30;;;2.90;;
61897;SDS011;47850;50.274;18.908;2022-07-09T04:32:54;10.30;;;4.10;;
61897;SDS011;47850;50.274;18.908;2022-07-09T04:35:21;8.20;;;2.60;;
61897;SDS011;47850;50.274;18.908;2022-07-09T04:37:47;6.00;;;2.60;;
61897;SDS011;47850;50.274;18.908;2022-07-09T04:40:14;7.10;;;3.30;;
61897;SDS011;47850;50.274;18.908;2022-07-09T04:42:40;7.90;;;2.50;;
61897;SDS011;47850;50.274;18.908;2022-07-09T04:45:07;8.10;;;2.90;;
61897;SDS011;47850;50.274;18.908;2022-07-09T04:47:34;5.30;;;3.00;;
61897;SDS011;47850;50.274;18.908;2022-07-09T04:50:00;9.30;;;3.20;;
61897;SDS011;47850;50.274;18.908;2022-07-09T04:52:27;7.30;;;3.30;;
61897;SDS011;47850;50.274;18.908;2022-07-09T04:54:54;9.00;;;3.90;;
61897;SDS011;47850;50.274;18.908;2022-07-09T04:57:21;7.60;;;4.20;;
61897;SDS011;47850;50.274;18.908;2022-07-09T04:59:47;9.40;;;4.60;;
61897;SDS011;47850;50.274;18.908;2022-07-09T05:02:14;6.90;;;4.50;;
61897;SDS011;47850;50.274;18.908;2022-07-09T05:04:40;8.10;;;5.40;;
61897;SDS011;47850;50.274;18.908;2022-07-09T05:07:07;13.20;;;6.60;;
61897;SDS011;47850;50.274;18.908;2022-07-09T05:09:33;10.80;;;6.50;;
61897;SDS011;47850;50.274;18.908;2022-07-09T05:12:00;13.40;;;7.00;;
61897;SDS011;47850;50.274;18.908;2022-07-09T05:14:26;13.20;;;7.70;;
61897;SDS011;47850;50.274;18.908;2022-07-09T05:16:53;14.80;;;6.30;;
61897;SDS011;47850;50.274;18.908;2022-07-09T05:19:19;12.90;;;6.80;;
61897;SDS011;47850;50.274;18.908;2022-07-09T05:21:46;11.40;;;6.40;;
61897;SDS011;47850;50.274;18.908;2022-07-09T05:24:12;9.50;;;5.50;;
61897;SDS011;47850;50.274;18.908;2022-07-09T05:26:39;9.00;;;6.10;;
61897;SDS011;47850;50.274;18.908;2022-07-09T05:29:05;11.60;;;6.40;;
61897;SDS011;47850;50.274;18.908;2022-07-09T05:31:32;11.90;;;5.40;;
61897;SDS011;47850;50.274;18.908;2022-07-09T05:33:59;8.60;;;4.70;;
61897;SDS011;47850;50.274;18.908;2022-07-09T05:36:26;11.60;;;7.00;;
61897;SDS011;47850;50.274;18.908;2022-07-09T05:38:55;10.20;;;5.20;;
61897;SDS011;47850;50.274;18.908;2022-07-09T05:41:22;8.40;;;4.50;;
61897;SDS011;47850;50.274;18.908;2022-07-09T05:43:49;9.70;;;4.30;;
61897;SDS011;47850;50.274;18.908;2022-07-09T05:46:15;7.20;;;4.30;;
61897;SDS011;47850;50.274;18.908;2022-07-09T05:48:42;6.30;;;3.90;;
61897;SDS011;47850;50.274;18.908;2022-07-09T05:51:09;11.80;;;4.60;;
61897;SDS011;47850;50.274;18.908;2022-07-09T05:53:35;6.20;;;3.60;;
61897;SDS011;47850;50.274;18.908;2022-07-09T05:56:02;10.50;;;4.60;;
61897;SDS011;47850;50.274;18.908;2022-07-09T05:58:29;10.10;;;4.10;;
61897;SDS011;47850;50.274;18.908;2022-07-09T06:00:55;10.60;;;4.70;;
61897;SDS011;47850;50.274;18.908;2022-07-09T06:03:22;14.80;;;4.20;;
61897;SDS011;47850;50.274;18.908;2022-07-09T06:05:49;9.10;;;4.90;;
61897;SDS011;47850;50.274;18.908;2022-07-09T06:08:15;7.40;;;4.10;;
61897;SDS011;47850;50.274;18.908;2022-07-09T06:10:42;8.00;;;4.70;;
61897;SDS011;47850;50.274;18.908;2022-07-09T06:13:09;20.20;;;14.00;;
61897;SDS011;47850;50.274;18.908;2022-07-09T06:15:35;16.80;;;8.80;;
61897;SDS011;47850;50.274;18.908;2022-07-09T06:18:02;17.70;;;9.70;;
61897;SDS011;47850;50.274;18.908;2022-07-09T06:20:28;11.90;;;6.50;;
61897;SDS011;47850;50.274;18.908;2022-07-09T06:22:55;11.20;;;5.60;;
61897;SDS011;47850;50.274;18.908;2022-07-09T06:25:21;11.00;;;4.60;;
61897;SDS011;47850;50.274;18.908;2022-07-09T06:27:49;7.60;;;3.60;;
61897;SDS011;47850;50.274;18.908;2022-07-09T06:30:15;9.80;;;4.80;;
61897;SDS011;47850;50.274;18.908;2022-07-09T06:32:42;14.40;;;7.50;;
61897;SDS011;47850;50.274;18.908;2022-07-09T06:35:09;10.70;;;4.60;;
61897;SDS011;47850;50.274;18.908;2022-07-09T06:37:35;6.30;;;4.00;;
61897;SDS011;47850;50.274;18.908;2022-07-09T06:40:02;7.50;;;4.00;;
61897;SDS011;47850;50.274;18.908;2022-07-09T06:42:30;9.20;;;4.10;;
61897;SDS011;47850;50.274;18.908;2022-07-09T06:44:56;9.00;;;4.30;;
61897;SDS011;47850;50.274;18.908;2022-07-09T06:47:23;13.10;;;5.00;;
61897;SDS011;47850;50.274;18.908;2022-07-09T06:49:49;7.40;;;3.70;;
61897;SDS011;47850;50.274;18.908;2022-07-09T06:52:16;10.10;;;4.00;;
61897;SDS011;47850;50.274;18.908;2022-07-09T06:54:43;11.80;;;5.50;;
61897;SDS011;47850;50.274;18.908;2022-07-09T06:57:09;9.80;;;3.80;;
61897;SDS011;47850;50.274;18.908;2022-07-09T06:59:36;9.00;;;4.00;;
61897;SDS011;47850;50.274;18.908;2022-07-09T07:02:03;11.00;;;3.70;;
61897;SDS011;47850;50.274;18.908;2022-07-09T07:04:30;8.60;;;3.40;;
61897;SDS011;47850;50.274;18.908;2022-07-09T07:06:57;6.90;;;3.50;;
61897;SDS011;47850;50.274;18.908;2022-07-09T07:09:23;15.10;;;4.10;;
61897;SDS011;47850;50.274;18.908;2022-07-09T07:11:50;9.80;;;3.80;;
61897;SDS011;47850;50.274;18.908;2022-07-09T07:14:16;8.70;;;4.20;;
61897;SDS011;47850;50.274;18.908;2022-07-09T07:16:43;11.10;;;4.30;;
61897;SDS011;47850;50.274;18.908;2022-07-09T07:19:10;16.90;;;5.40;;
61897;SDS011;47850;50.274;18.908;2022-07-09T07:21:38;9.90;;;4.70;;
61897;SDS011;47850;50.274;18.908;2022-07-09T07:24:05;7.90;;;4.50;;
61897;SDS011;47850;50.274;18.908;2022-07-09T07:26:33;16.10;;;5.80;;
61897;SDS011;47850;50.274;18.908;2022-07-09T07:29:01;7.50;;;3.90;;
61897;SDS011;47850;50.274;18.908;2022-07-09T07:31:27;8.80;;;4.00;;
61897;SDS011;47850;50.274;18.908;2022-07-09T07:33:54;10.00;;;4.10;;
61897;SDS011;47850;50.274;18.908;2022-07-09T07:36:21;7.20;;;3.90;;
61897;SDS011;47850;50.274;18.908;2022-07-09T07:38:47;10.10;;;4.90;;
61897;SDS011;47850;50.274;18.908;2022-07-09T07:41:14;8.80;;;4.10;;
61897;SDS011;47850;50.274;18.908;2022-07-09T07:43:43;11.10;;;5.00;;
61897;SDS011;47850;50.274;18.908;2022-07-09T07:46:10;6.70;;;4.40;;
61897;SDS011;47850;50.274;18.908;2022-07-09T07:48:37;8.60;;;5.30;;
61897;SDS011;47850;50.274;18.908;2022-07-09T07:51:03;11.00;;;5.40;;
61897;SDS011;47850;50.274;18.908;2022-07-09T07:53:31;9.80;;;5.70;;
61897;SDS011;47850;50.274;18.908;2022-07-09T07:55:58;9.80;;;5.60;;
61897;SDS011;47850;50.274;18.908;2022-07-09T07:58:26;15.70;;;4.70;;
61897;SDS011;47850;50.274;18.908;2022-07-09T08:00:53;9.50;;;4.20;;
61897;SDS011;47850;50.274;18.908;2022-07-09T08:03:20;14.40;;;4.90;;
61897;SDS011;47850;50.274;18.908;2022-07-09T08:05:47;10.40;;;4.60;;
61897;SDS011;47850;50.274;18.908;2022-07-09T08:08:14;8.70;;;4.30;;
61897;SDS011;47850;50.274;18.908;2022-07-09T08:10:41;10.20;;;4.00;;
61897;SDS011;47850;50.274;18.908;2022-07-09T08:13:08;8.00;;;3.40;;
61897;SDS011;47850;50.274;18.908;2022-07-09T08:15:34;7.20;;;3.00;;
61897;SDS011;47850;50.274;18.908;2022-07-09T08:18:01;6.50;;;3.60;;
61897;SDS011;47850;50.274;18.908;2022-07-09T08:20:28;7.40;;;4.60;;
61897;SDS011;47850;50.274;18.908;2022-07-09T08:22:55;7.50;;;3.50;;
61897;SDS011;47850;50.274;18.908;2022-07-09T08:25:21;6.30;;;3.80;;
61897;SDS011;47850;50.274;18.908;2022-07-09T08:27:48;6.10;;;2.90;;
61897;SDS011;47850;50.274;18.908;2022-07-09T08:30:15;10.40;;;3.50;;
61897;SDS011;47850;50.274;18.908;2022-07-09T08:32:42;5.00;;;2.80;;
61897;SDS011;47850;50.274;18.908;2022-07-09T08:35:09;5.30;;;2.90;;
61897;SDS011;47850;50.274;18.908;2022-07-09T08:37:35;5.80;;;3.00;;
61897;SDS011;47850;50.274;18.908;2022-07-09T08:40:06;5.50;;;2.30;;
61897;SDS011;47850;50.274;18.908;2022-07-09T08:42:33;7.90;;;3.50;;
61897;SDS011;47850;50.274;18.908;2022-07-09T08:45:00;9.20;;;3.40;;
61897;SDS011;47850;50.274;18.908;2022-07-09T08:47:28;5.10;;;2.40;;
61897;SDS011;47850;50.274;18.908;2022-07-09T08:49:57;7.60;;;3.40;;
61897;SDS011;47850;50.274;18.908;2022-07-09T08:52:24;15.10;;;3.70;;
61897;SDS011;47850;50.274;18.908;2022-07-09T08:54:52;6.00;;;3.50;;
61897;SDS011;47850;50.274;18.908;2022-07-09T08:57:20;7.30;;;2.70;;
61897;SDS011;47850;50.274;18.908;2022-07-09T08:59:49;6.30;;;2.40;;
61897;SDS011;47850;50.274;18.908;2022-07-09T09:02:15;7.10;;;2.60;;
61897;SDS011;47850;50.274;18.908;2022-07-09T09:04:46;4.80;;;2.40;;
61897;SDS011;47850;50.274;18.908;2022-07-09T09:07:16;9.70;;;2.50;;
61897;SDS011;47850;50.274;18.908;2022-07-09T09:09:47;4.80;;;1.90;;
61897;SDS011;47850;50.274;18.908;2022-07-09T09:12:15;6.20;;;2.00;;
61897;SDS011;47850;50.274;18.908;2022-07-09T09:14:48;8.40;;;2.10;;
61897;SDS011;47850;50.274;18.908;2022-07-09T09:17:16;7.60;;;2.10;;
61897;SDS011;47850;50.274;18.908;2022-07-09T09:19:42;5.00;;;2.10;;
61897;SDS011;47850;50.274;18.908;2022-07-09T09:22:09;6.00;;;2.10;;
61897;SDS011;47850;50.274;18.908;2022-07-09T09:24:36;9.50;;;2.70;;
61897;SDS011;47850;50.274;18.908;2022-07-09T09:27:03;5.60;;;1.60;;
61897;SDS011;47850;50.274;18.908;2022-07-09T09:29:30;3.50;;;1.50;;
61897;SDS011;47850;50.274;18.908;2022-07-09T09:31:57;4.80;;;1.70;;
61897;SDS011;47850;50.274;18.908;2022-07-09T09:34:23;3.70;;;2.00;;
61897;SDS011;47850;50.274;18.908;2022-07-09T09:36:51;3.90;;;1.60;;
61897;SDS011;47850;50.274;18.908;2022-07-09T09:39:22;5.70;;;2.70;;
61897;SDS011;47850;50.274;18.908;2022-07-09T09:41:53;8.40;;;1.60;;
61897;SDS011;47850;50.274;18.908;2022-07-09T09:44:25;5.10;;;1.60;;
61897;SDS011;47850;50.274;18.908;2022-07-09T09:47:04;17.20;;;2.90;;
61897;SDS011;47850;50.274;18.908;2022-07-09T09:49:34;4.20;;;1.60;;
61897;SDS011;47850;50.274;18.908;2022-07-09T09:52:09;5.00;;;1.70;;
61897;SDS011;47850;50.274;18.908;2022-07-09T09:54:37;7.00;;;2.00;;
61897;SDS011;47850;50.274;18.908;2022-07-09T09:57:09;6.10;;;2.00;;
61897;SDS011;47850;50.274;18.908;2022-07-09T09:59:40;4.90;;;1.70;;
61897;SDS011;47850;50.274;18.908;2022-07-09T10:02:08;3.30;;;1.50;;
61897;SDS011;47850;50.274;18.908;2022-07-09T10:04:36;4.60;;;1.60;;
61897;SDS011;47850;50.274;18.908;2022-07-09T10:07:08;4.00;;;1.60;;
61897;SDS011;47850;50.274;18.908;2022-07-09T10:09:36;5.80;;;1.40;;
61897;SDS011;47850;50.274;18.908;2022-07-09T10:12:04;8.00;;;1.70;;
61897;SDS011;47850;50.274;18.908;2022-07-09T10:14:34;1.70;;;0.90;;
61897;SDS011;47850;50.274;18.908;2022-07-09T10:19:37;2.70;;;1.20;;
61897;SDS011;47850;50.274;18.908;2022-07-09T10:22:04;5.20;;;1.70;;
61897;SDS011;47850;50.274;18.908;2022-07-09T10:24:31;3.60;;;1.50;;
61897;SDS011;47850;50.274;18.908;2022-07-09T10:27:06;6.10;;;1.50;;
61897;SDS011;47850;50.274;18.908;2022-07-09T10:29:35;3.90;;;1.20;;
61897;SDS011;47850;50.274;18.908;2022-07-09T10:35:12;4.80;;;1.70;;
61897;SDS011;47850;50.274;18.908;2022-07-09T10:37:42;7.50;;;1.40;;
61897;SDS011;47850;50.274;18.908;2022-07-09T10:40:11;2.30;;;1.30;;
61897;SDS011;47850;50.274;18.908;2022-07-09T10:42:41;3.20;;;1.40;;
61897;SDS011;47850;50.274;18.908;2022-07-09T10:47:57;3.50;;;1.40;;
61897;SDS011;47850;50.274;18.908;2022-07-09T10:50:27;4.20;;;1.40;;
61897;SDS011;47850;50.274;18.908;2022-07-09T10:55:23;3.90;;;1.10;;
61897;SDS011;47850;50.274;18.908;2022-07-09T10:57:51;6.60;;;2.00;;
61897;SDS011;47850;50.274;18.908;2022-07-09T11:00:19;4.70;;;1.00;;
61897;SDS011;47850;50.274;18.908;2022-07-09T11:02:51;5.10;;;1.20;;
61897;SDS011;47850;50.274;18.908;2022-07-09T11:05:18;4.20;;;0.90;;
61897;SDS011;47850;50.274;18.908;2022-07-09T11:10:28;4.60;;;1.00;;
61897;SDS011;47850;50.274;18.908;2022-07-09T11:12:56;5.10;;;1.10;;
61897;SDS011;47850;50.274;18.908;2022-07-09T11:15:26;2.80;;;1.00;;
61897;SDS011;47850;50.274;18.908;2022-07-09T11:18:03;2.70;;;0.90;;
61897;SDS011;47850;50.274;18.908;2022-07-09T11:20:32;4.60;;;1.30;;
61897;SDS011;47850;50.274;18.908;2022-07-09T11:23:03;3.40;;;1.30;;
61897;SDS011;47850;50.274;18.908;2022-07-09T11:25:29;5.70;;;1.10;;
61897;SDS011;47850;50.274;18.908;2022-07-09T11:27:56;3.80;;;1.00;;
61897;SDS011;47850;50.274;18.908;2022-07-09T11:30:24;3.20;;;1.10;;
61897;SDS011;47850;50.274;18.908;2022-07-09T11:32:51;2.40;;;0.90;;
61897;SDS011;47850;50.274;18.908;2022-07-09T11:35:25;3.60;;;0.90;;
61897;SDS011;47850;50.274;18.908;2022-07-09T11:37:53;5.00;;;1.30;;
61897;SDS011;47850;50.274;18.908;2022-07-09T11:40:20;3.90;;;1.30;;
61897;SDS011;47850;50.274;18.908;2022-07-09T11:42:47;5.50;;;1.50;;
61897;SDS011;47850;50.274;18.908;2022-07-09T11:45:19;3.70;;;1.50;;
61897;SDS011;47850;50.274;18.908;2022-07-09T11:48:06;6.60;;;1.50;;
61897;SDS011;47850;50.274;18.908;2022-07-09T11:50:41;4.00;;;1.50;;
61897;SDS011;47850;50.274;18.908;2022-07-09T11:53:21;2.00;;;1.20;;
61897;SDS011;47850;50.274;18.908;2022-07-09T11:55:58;2.70;;;1.20;;
61897;SDS011;47850;50.274;18.908;2022-07-09T11:58:26;2.60;;;0.90;;
61897;SDS011;47850;50.274;18.908;2022-07-09T12:00:54;5.10;;;1.40;;
61897;SDS011;47850;50.274;18.908;2022-07-09T12:03:24;3.90;;;1.00;;
61897;SDS011;47850;50.274;18.908;2022-07-09T12:05:51;3.50;;;1.20;;
61897;SDS011;47850;50.274;18.908;2022-07-09T12:08:26;2.70;;;1.00;;
61897;SDS011;47850;50.274;18.908;2022-07-09T12:10:55;8.40;;;2.00;;
61897;SDS011;47850;50.274;18.908;2022-07-09T12:13:22;3.00;;;1.60;;
61897;SDS011;47850;50.274;18.908;2022-07-09T12:15:48;4.20;;;1.10;;
61897;SDS011;47850;50.274;18.908;2022-07-09T12:18:15;2.70;;;1.10;;
61897;SDS011;47850;50.274;18.908;2022-07-09T12:20:42;2.20;;;1.20;;
61897;SDS011;47850;50.274;18.908;2022-07-09T12:23:09;2.30;;;1.10;;
61897;SDS011;47850;50.274;18.908;2022-07-09T12:25:35;3.50;;;1.40;;
61897;SDS011;47850;50.274;18.908;2022-07-09T12:28:02;3.40;;;1.10;;
61897;SDS011;47850;50.274;18.908;2022-07-09T12:30:29;2.30;;;1.20;;
61897;SDS011;47850;50.274;18.908;2022-07-09T12:32:56;3.20;;;1.40;;
61897;SDS011;47850;50.274;18.908;2022-07-09T12:35:24;2.10;;;1.30;;
61897;SDS011;47850;50.274;18.908;2022-07-09T12:37:52;2.60;;;1.20;;
61897;SDS011;47850;50.274;18.908;2022-07-09T12:40:19;3.20;;;1.30;;
61897;SDS011;47850;50.274;18.908;2022-07-09T12:42:45;3.60;;;1.20;;
61897;SDS011;47850;50.274;18.908;2022-07-09T12:45:12;2.50;;;1.40;;
61897;SDS011;47850;50.274;18.908;2022-07-09T12:47:38;4.60;;;1.50;;
61897;SDS011;47850;50.274;18.908;2022-07-09T12:50:06;1.60;;;1.10;;
61897;SDS011;47850;50.274;18.908;2022-07-09T12:52:33;3.60;;;1.40;;
61897;SDS011;47850;50.274;18.908;2022-07-09T12:55:00;3.30;;;1.30;;
61897;SDS011;47850;50.274;18.908;2022-07-09T12:57:28;3.80;;;1.40;;
61897;SDS011;47850;50.274;18.908;2022-07-09T12:59:55;2.60;;;1.30;;
61897;SDS011;47850;50.274;18.908;2022-07-09T13:02:21;1.90;;;1.20;;
61897;SDS011;47850;50.274;18.908;2022-07-09T13:04:48;4.40;;;1.30;;
61897;SDS011;47850;50.274;18.908;2022-07-09T13:07:15;3.60;;;1.30;;
61897;SDS011;47850;50.274;18.908;2022-07-09T13:09:41;5.90;;;3.30;;
61897;SDS011;47850;50.274;18.908;2022-07-09T13:12:08;2.20;;;1.30;;
61897;SDS011;47850;50.274;18.908;2022-07-09T13:14:35;1.80;;;0.90;;
61897;SDS011;47850;50.274;18.908;2022-07-09T13:17:01;3.20;;;1.30;;
61897;SDS011;47850;50.274;18.908;2022-07-09T13:19:28;4.30;;;1.50;;
61897;SDS011;47850;50.274;18.908;2022-07-09T13:21:54;3.40;;;1.70;;
61897;SDS011;47850;50.274;18.908;2022-07-09T13:24:21;3.50;;;1.20;;
61897;SDS011;47850;50.274;18.908;2022-07-09T13:26:48;2.80;;;1.30;;
61897;SDS011;47850;50.274;18.908;2022-07-09T13:29:14;1.90;;;1.20;;
61897;SDS011;47850;50.274;18.908;2022-07-09T13:31:41;2.30;;;1.20;;
61897;SDS011;47850;50.274;18.908;2022-07-09T13:34:07;4.00;;;1.00;;
61897;SDS011;47850;50.274;18.908;2022-07-09T13:36:34;6.30;;;1.30;;
61897;SDS011;47850;50.274;18.908;2022-07-09T13:39:00;2.30;;;1.10;;
61897;SDS011;47850;50.274;18.908;2022-07-09T13:41:27;3.50;;;1.10;;
61897;SDS011;47850;50.274;18.908;2022-07-09T13:43:54;2.70;;;1.00;;
61897;SDS011;47850;50.274;18.908;2022-07-09T13:46:20;2.70;;;0.90;;
61897;SDS011;47850;50.274;18.908;2022-07-09T13:48:47;2.80;;;1.10;;
61897;SDS011;47850;50.274;18.908;2022-07-09T13:51:13;2.50;;;0.90;;
61897;SDS011;47850;50.274;18.908;2022-07-09T13:53:40;3.00;;;1.00;;
61897;SDS011;47850;50.274;18.908;2022-07-09T13:56:08;4.50;;;1.30;;
61897;SDS011;47850;50.274;18.908;2022-07-09T13:58:35;2.10;;;1.30;;
61897;SDS011;47850;50.274;18.908;2022-07-09T14:01:02;2.70;;;1.10;;
61897;SDS011;47850;50.274;18.908;2022-07-09T14:03:28;1.50;;;1.10;;
61897;SDS011;47850;50.274;18.908;2022-07-09T14:05:55;4.20;;;1.20;;
61897;SDS011;47850;50.274;18.908;2022-07-09T14:08:22;2.10;;;1.10;;
61897;SDS011;47850;50.274;18.908;2022-07-09T14:10:51;1.70;;;0.90;;
61897;SDS011;47850;50.274;18.908;2022-07-09T14:13:27;3.10;;;1.20;;
61897;SDS011;47850;50.274;18.908;2022-07-09T14:15:54;2.10;;;1.10;;
61897;SDS011;47850;50.274;18.908;2022-07-09T14:18:22;3.90;;;1.30;;
61897;SDS011;47850;50.274;18.908;2022-07-09T14:20:48;1.70;;;1.10;;
61897;SDS011;47850;50.274;18.908;2022-07-09T14:23:15;4.70;;;2.10;;
61897;SDS011;47850;50.274;18.908;2022-07-09T14:25:42;2.80;;;1.10;;
61897;SDS011;47850;50.274;18.908;2022-07-09T14:28:09;4.40;;;1.30;;
61897;SDS011;47850;50.274;18.908;2022-07-09T14:30:36;3.50;;;1.30;;
61897;SDS011;47850;50.274;18.908;2022-07-09T14:33:02;5.60;;;2.30;;
61897;SDS011;47850;50.274;18.908;2022-07-09T14:35:29;3.50;;;1.20;;
61897;SDS011;47850;50.274;18.908;2022-07-09T14:37:55;5.30;;;1.60;;
61897;SDS011;47850;50.274;18.908;2022-07-09T14:40:22;3.10;;;1.80;;
61897;SDS011;47850;50.274;18.908;2022-07-09T14:42:48;3.80;;;2.30;;
61897;SDS011;47850;50.274;18.908;2022-07-09T14:45:16;3.40;;;2.10;;